Time;durP1;ratioP1;P1;durP2;ratioP2;P2;SDS_P1;SDS_P2;PMS_P1;PMS_P2;Temp;Humidity;BMP_temperature;BMP_pressure;BME280_temperature;BME280_humidity;BME280_pressure;Samples;Min_cycle;Max_cycle;Signal;HPM_P1;HPM_P2
2023/12/17 00:01:19;;;;;;;13.40;7.10;;;23.30;61.10;;;;;;5032662;28;20033;-69
2023/12/17 00:03:45;;;;;;;12.98;6.60;;;23.60;62.90;;;;;;5016908;28;20037;-70
2023/12/17 00:06:10;;;;;;;11.13;6.90;;;23.50;63.00;;;;;;5016717;28;20452;-71
2023/12/17 00:08:36;;;;;;;13.05;7.45;;;;;;;;;;5033467;28;20076;-70
2023/12/17 00:11:03;;;;;;;19.60;7.43;;;;;;;;;;5032597;28;20519;-70
2023/12/17 00:13:28;;;;;;;10.75;7.15;;;23.20;62.00;;;;;;5033611;28;20108;-70
2023/12/17 00:15:54;;;;;;;17.60;7.20;;;;;;;;;;5033145;28;20040;-70
2023/12/17 00:18:20;;;;;;;15.02;6.32;;;23.10;63.70;;;;;;5050969;28;20447;-70
2023/12/17 00:20:46;;;;;;;11.60;6.57;;;23.50;63.60;;;;;;5032687;28;20037;-70
2023/12/17 00:23:11;;;;;;;15.48;6.80;;;23.10;63.00;;;;;;5033237;28;20090;-70
2023/12/17 00:25:37;;;;;;;19.55;6.68;;;;;;;;;;5033456;28;20040;-70
2023/12/17 00:28:03;;;;;;;15.68;7.40;;;;;;;;;;5033104;28;20041;-70
2023/12/17 00:30:29;;;;;;;9.90;6.22;;;;;;;;;;5016061;28;20553;-71
2023/12/17 00:32:55;;;;;;;11.80;6.45;;;;;;;;;;5051046;28;20041;-70
2023/12/17 00:35:21;;;;;;;11.68;6.20;;;23.50;61.90;;;;;;5033025;28;20481;-70
2023/12/17 00:37:46;;;;;;;10.65;6.30;;;23.20;60.70;;;;;;5032842;28;20126;-70
2023/12/17 00:40:12;;;;;;;16.73;6.47;;;23.10;60.40;;;;;;5015954;28;20176;-70
2023/12/17 00:42:38;;;;;;;13.90;6.32;;;;;;;;;;5016821;28;20041;-70
2023/12/17 00:45:04;;;;;;;13.25;6.15;;;23.40;57.00;;;;;;5032707;28;20123;-72
2023/12/17 00:47:30;;;;;;;17.20;6.78;;;23.00;59.20;;;;;;5031890;28;20040;-70
2023/12/17 00:49:56;;;;;;;13.40;6.13;;;;;;;;;;5032941;28;20052;-71
2023/12/17 00:52:22;;;;;;;11.15;5.80;;;;;;;;;;5017229;28;20040;-70
2023/12/17 00:54:51;;;;;;;13.07;6.38;;;23.40;60.30;;;;;;5036355;28;20083;-70
2023/12/17 00:57:17;;;;;;;12.88;6.18;;;;;;;;;;5036405;28;20048;-70
2023/12/17 00:59:42;;;;;;;13.55;7.10;;;23.00;55.70;;;;;;5036422;28;20492;-71
2023/12/17 01:02:08;;;;;;;13.77;7.07;;;23.20;59.60;;;;;;5035728;28;20094;-70
2023/12/17 01:04:34;;;;;;;12.23;5.88;;;;;;;;;;5019684;28;20037;-71
2023/12/17 01:06:59;;;;;;;15.07;6.60;;;23.10;59.70;;;;;;5036132;28;20115;-70
2023/12/17 01:09:25;;;;;;;15.68;5.88;;;23.30;58.70;;;;;;5035990;28;20124;-70
2023/12/17 01:11:51;;;;;;;11.10;6.10;;;;;;;;;;5035432;28;20519;-70
2023/12/17 01:14:17;;;;;;;11.63;6.57;;;;;;;;;;5035920;28;20473;-70
2023/12/17 01:16:43;;;;;;;14.23;6.75;;;23.40;61.10;;;;;;5036147;28;20041;-70
2023/12/17 01:19:08;;;;;;;9.15;5.75;;;23.00;60.60;;;;;;5019610;28;20041;-70
2023/12/17 01:21:34;;;;;;;12.65;7.07;;;;;;;;;;5053202;28;20052;-70
2023/12/17 01:24:00;;;;;;;13.20;6.18;;;23.50;58.90;;;;;;5035685;28;20044;-71
2023/12/17 01:26:29;;;;;;;16.45;5.75;;;;;;;;;;5035662;28;20413;-70
2023/12/17 01:28:55;;;;;;;9.73;4.97;;;23.00;57.10;;;;;;5035682;28;20085;-70
2023/12/17 01:31:21;;;;;;;12.48;6.25;;;23.10;58.00;;;;;;5035402;28;20052;-70
2023/12/17 01:33:46;;;;;;;12.75;5.65;;;23.60;60.50;;;;;;5019205;28;20449;-70
2023/12/17 01:36:12;;;;;;;18.92;7.47;;;;;;;;;;5035413;28;20180;-70
2023/12/17 01:38:38;;;;;;;14.82;6.10;;;;;;;;;;5035272;28;20074;-70
2023/12/17 01:41:06;;;;;;;11.32;5.45;;;;;;;;;;5018502;28;20128;-71
2023/12/17 01:43:32;;;;;;;12.50;6.15;;;;;;;;;;5035816;28;20514;-70
2023/12/17 01:45:58;;;;;;;12.00;6.15;;;23.10;57.90;;;;;;5018890;28;20072;-70
2023/12/17 01:48:26;;;;;;;13.07;5.53;;;23.60;57.00;;;;;;5034319;28;20045;-70
2023/12/17 01:50:52;;;;;;;11.13;5.82;;;;;;;;;;5018250;28;20049;-70
2023/12/17 01:53:18;;;;;;;9.63;5.38;;;;;;;;;;5035515;28;20063;-70
2023/12/17 01:55:46;;;;;;;13.82;6.05;;;23.40;55.80;;;;;;5035245;28;20041;-70
2023/12/17 01:58:14;;;;;;;15.27;6.43;;;23.40;55.80;;;;;;5035179;28;20063;-70
2023/12/17 02:00:40;;;;;;;8.80;5.15;;;23.50;56.30;;;;;;5018348;28;20040;-70
2023/12/17 02:03:06;;;;;;;12.02;5.45;;;23.60;54.60;;;;;;5034775;28;20040;-70
2023/12/17 02:05:35;;;;;;;9.93;5.38;;;23.60;50.70;;;;;;5034889;28;20056;-70
2023/12/17 02:08:01;;;;;;;11.05;5.68;;;23.00;55.00;;;;;;5035004;28;20041;-70
2023/12/17 02:10:27;;;;;;;10.98;5.80;;;23.10;56.50;;;;;;5052337;28;20115;-70
2023/12/17 02:12:53;;;;;;;12.75;5.63;;;23.20;54.00;;;;;;5052926;28;20115;-70
2023/12/17 02:15:19;;;;;;;15.55;5.80;;;23.20;56.80;;;;;;5034781;28;20511;-70
2023/12/17 02:17:45;;;;;;;10.18;5.70;;;23.60;55.60;;;;;;5034694;28;20381;-70
2023/12/17 02:20:11;;;;;;;12.05;5.47;;;23.50;55.40;;;;;;5034330;28;20082;-70
2023/12/17 02:22:38;;;;;;;13.02;6.30;;;23.30;56.30;;;;;;5035017;28;20041;-71
2023/12/17 02:25:04;;;;;;;13.63;6.15;;;23.40;55.20;;;;;;5034594;28;20516;-70
2023/12/17 02:27:31;;;;;;;13.45;5.05;;;;;;;;;;5034855;28;20064;-70
2023/12/17 02:29:57;;;;;;;16.15;5.97;;;;;;;;;;5034815;28;20044;-70
2023/12/17 02:32:23;;;;;;;12.82;5.15;;;;;;;;;;5018177;28;20040;-72
2023/12/17 02:34:50;;;;;;;13.52;5.97;;;23.40;49.70;;;;;;5034276;28;20124;-70
2023/12/17 02:37:16;;;;;;;13.82;6.45;;;23.50;51.00;;;;;;5017890;28;20048;-70
2023/12/17 02:39:42;;;;;;;11.63;6.10;;;22.90;50.90;;;;;;5018055;28;20029;-70
2023/12/17 02:42:08;;;;;;;12.30;5.57;;;22.90;50.70;;;;;;5017559;28;20048;-71
2023/12/17 02:44:33;;;;;;;8.82;5.95;;;23.10;49.80;;;;;;5034206;28;20040;-70
2023/12/17 02:47:00;;;;;;;16.70;5.72;;;;;;;;;;5016669;28;20048;-70
2023/12/17 02:49:26;;;;;;;12.48;5.53;;;23.00;50.60;;;;;;5017657;28;20048;-70
2023/12/17 02:51:52;;;;;;;14.85;6.78;;;23.20;49.60;;;;;;5033640;28;20037;-70
2023/12/17 02:54:18;;;;;;;10.57;6.40;;;23.30;50.20;;;;;;5017663;28;20051;-70
2023/12/17 02:56:44;;;;;;;8.57;5.45;;;23.30;49.50;;;;;;5034128;28;20144;-70
2023/12/17 02:59:11;;;;;;;17.50;7.10;;;23.20;47.80;;;;;;5034264;28;20083;-70
2023/12/17 03:01:39;;;;;;;17.88;6.57;;;22.90;47.70;;;;;;5033410;28;20037;-69
2023/12/17 03:04:05;;;;;;;12.18;6.05;;;23.00;50.70;;;;;;5033907;28;20101;-69
2023/12/17 03:06:31;;;;;;;14.57;6.10;;;23.10;50.80;;;;;;5033828;28;20037;-70
2023/12/17 03:08:57;;;;;;;19.35;6.68;;;;;;;;;;5033900;28;20045;-70
2023/12/17 03:11:23;;;;;;;14.05;6.60;;;23.30;52.60;;;;;;5033311;28;20041;-70
2023/12/17 03:13:49;;;;;;;17.30;6.55;;;;;;;;;;5033937;28;20089;-69
2023/12/17 03:16:15;;;;;;;11.38;5.82;;;23.20;48.80;;;;;;5032982;28;20098;-70
2023/12/17 03:18:41;;;;;;;14.85;6.88;;;;;;;;;;5033866;28;20048;-69
2023/12/17 03:21:07;;;;;;;16.83;6.93;;;23.20;50.40;;;;;;5033180;28;20036;-70
2023/12/17 03:23:34;;;;;;;15.30;6.55;;;23.00;53.40;;;;;;5034101;28;20040;-70
2023/12/17 03:25:59;;;;;;;16.40;6.93;;;23.00;53.80;;;;;;5033540;28;20044;-70
2023/12/17 03:28:25;;;;;;;14.77;6.90;;;;;;;;;;5017067;28;20041;-70
2023/12/17 03:30:51;;;;;;;22.90;7.15;;;;;;;;;;5033016;28;20500;-71
2023/12/17 03:33:17;;;;;;;15.10;7.07;;;;;;;;;;5017204;28;20076;-71
2023/12/17 03:35:43;;;;;;;15.07;6.50;;;;;;;;;;5033307;28;20141;-70
2023/12/17 03:38:09;;;;;;;15.43;7.53;;;;;;;;;;5060785;22;20519;-75
2023/12/17 03:40:35;;;;;;;16.48;6.55;;;;;;;;;;5072980;28;20073;-75
2023/12/17 03:43:01;;;;;;;18.52;7.28;;;23.10;52.60;;;;;;5073741;28;20121;-75
2023/12/17 03:45:26;;;;;;;15.98;6.90;;;22.70;51.20;;;;;;5073424;28;20492;-75
2023/12/17 03:47:52;;;;;;;15.90;7.85;;;23.10;50.70;;;;;;5072632;28;20044;-75
2023/12/17 03:50:19;;;;;;;20.98;7.57;;;23.30;48.80;;;;;;5073074;28;20561;-75
2023/12/17 03:52:48;;;;;;;14.43;7.07;;;22.90;50.40;;;;;;5057022;28;20040;-75
2023/12/17 03:55:14;;;;;;;22.02;8.27;;;;;;;;;;5073127;28;20036;-75
2023/12/17 03:57:41;;;;;;;17.45;7.22;;;;;;;;;;5073133;28;20475;-75
2023/12/17 04:00:07;;;;;;;13.80;6.53;;;;;;;;;;5072611;28;20044;-75
2023/12/17 04:02:33;;;;;;;12.70;6.75;;;;;;;;;;5056734;28;20074;-75
2023/12/17 04:04:59;;;;;;;25.17;7.55;;;;;;;;;;5073288;28;20036;-75
2023/12/17 04:07:26;;;;;;;16.95;7.70;;;;;;;;;;5056480;28;20047;-75
2023/12/17 04:09:52;;;;;;;13.73;6.93;;;23.30;47.40;;;;;;5073063;28;20059;-75
2023/12/17 04:12:18;;;;;;;15.23;7.15;;;;;;;;;;5072711;28;20047;-75
2023/12/17 04:14:44;;;;;;;15.60;6.95;;;23.30;44.60;;;;;;5073066;28;20078;-75
2023/12/17 04:17:10;;;;;;;14.82;7.38;;;;;;;;;;5073209;28;20089;-75
2023/12/17 04:19:36;;;;;;;14.88;7.40;;;23.20;45.10;;;;;;5073202;28;20529;-75
2023/12/17 04:22:02;;;;;;;24.95;8.57;;;;;;;;;;5072849;28;20086;-75
2023/12/17 04:24:28;;;;;;;16.08;8.00;;;;;;;;;;5056393;28;20051;-76
2023/12/17 04:26:54;;;;;;;19.73;7.90;;;;;;;;;;5058305;28;20036;-75
2023/12/17 04:29:20;;;;;;;13.55;7.45;;;;;;;;;;5076777;28;20040;-75
2023/12/17 04:31:46;;;;;;;22.50;8.70;;;;;;;;;;5076214;28;20415;-75
2023/12/17 04:34:12;;;;;;;27.55;8.70;;;;;;;;;;5060186;28;20090;-75
2023/12/17 04:36:41;;;;;;;18.40;7.82;;;22.60;43.10;;;;;;5076535;28;20503;-76
2023/12/17 04:39:07;;;;;;;16.45;7.90;;;23.10;44.80;;;;;;5076687;28;20051;-75
2023/12/17 04:41:33;;;;;;;24.08;8.43;;;;;;;;;;5076300;28;20040;-75
2023/12/17 04:43:59;;;;;;;15.98;7.53;;;22.80;45.20;;;;;;5076405;28;20104;-76
2023/12/17 04:46:25;;;;;;;13.27;7.82;;;23.10;45.20;;;;;;5076598;28;20500;-75
2023/12/17 04:48:51;;;;;;;13.35;7.28;;;23.10;45.20;;;;;;5076366;28;20036;-75
2023/12/17 04:51:17;;;;;;;17.95;7.03;;;;;;;;;;5075755;28;20055;-75
2023/12/17 04:53:43;;;;;;;17.42;7.57;;;;;;;;;;5076372;28;20076;-75
2023/12/17 04:56:09;;;;;;;18.83;7.80;;;;;;;;;;5076215;28;20044;-75
2023/12/17 04:58:35;;;;;;;23.48;9.07;;;;;;;;;;5076207;28;20101;-75
2023/12/17 05:01:01;;;;;;;12.75;6.97;;;23.40;43.50;;;;;;5075786;28;20693;-75
2023/12/17 05:03:27;;;;;;;15.63;6.90;;;;;;;;;;5076237;28;20047;-75
2023/12/17 05:05:52;;;;;;;20.38;7.88;;;23.10;41.10;;;;;;5075971;28;20427;-75
2023/12/17 05:08:18;;;;;;;17.63;7.97;;;22.70;39.50;;;;;;5059694;28;20051;-75
2023/12/17 05:10:44;;;;;;;16.30;7.60;;;23.10;41.50;;;;;;5075758;28;20079;-75
2023/12/17 05:13:10;;;;;;;19.60;8.43;;;22.80;37.00;;;;;;5076390;28;20491;-75
2023/12/17 05:15:36;;;;;;;16.10;8.75;;;;;;;;;;5059200;28;20189;-75
2023/12/17 05:18:01;;;;;;;17.08;8.00;;;22.90;38.90;;;;;;5075814;28;20032;-75
2023/12/17 05:20:27;;;;;;;17.50;7.93;;;;;;;;;;5075275;28;20044;-75
2023/12/17 05:22:53;;;;;;;14.40;8.13;;;23.10;41.00;;;;;;5075894;28;20403;-75
2023/12/17 05:25:19;;;;;;;18.67;8.45;;;23.00;40.80;;;;;;5059022;28;20035;-75
2023/12/17 05:27:45;;;;;;;17.17;8.93;;;;;;;;;;5059307;28;20040;-75
2023/12/17 05:30:11;;;;;;;18.85;9.07;;;23.20;35.30;;;;;;5075119;28;20044;-76
2023/12/17 05:32:37;;;;;;;18.65;8.32;;;22.80;40.00;;;;;;5075665;28;20036;-76
2023/12/17 05:35:04;;;;;;;25.50;8.77;;;23.10;36.90;;;;;;5059071;28;20052;-75
2023/12/17 05:37:30;;;;;;;20.95;8.68;;;22.70;39.50;;;;;;5058416;28;20032;-75
2023/12/17 05:39:55;;;;;;;17.45;9.25;;;22.80;39.00;;;;;;5075241;28;20036;-75
2023/12/17 05:42:21;;;;;;;19.40;8.63;;;22.50;33.60;;;;;;5074946;28;20032;-75
2023/12/17 05:44:47;;;;;;;16.75;8.18;;;22.70;38.20;;;;;;5075288;28;20039;-75
2023/12/17 05:47:12;;;;;;;18.02;8.45;;;23.30;37.70;;;;;;5057906;28;20047;-75
2023/12/17 05:49:39;;;;;;;17.85;8.05;;;23.20;33.50;;;;;;5075283;28;20058;-75
2023/12/17 05:52:05;;;;;;;21.92;7.32;;;;;;;;;;5074990;28;20396;-75
2023/12/17 05:54:31;;;;;;;18.60;7.68;;;;;;;;;;5075133;28;20092;-76
2023/12/17 05:56:56;;;;;;;17.90;7.70;;;23.50;37.60;;;;;;5075331;28;20050;-75
2023/12/17 05:59:23;;;;;;;18.55;9.00;;;;;;;;;;5074956;28;20169;-76
2023/12/17 06:01:49;;;;;;;23.48;8.50;;;;;;;;;;5074767;28;20063;-76
2023/12/17 06:04:15;;;;;;;16.50;9.02;;;;;;;;;;5075116;28;20036;-75
2023/12/17 06:06:41;;;;;;;16.67;8.70;;;23.20;35.40;;;;;;5075015;28;20119;-75
2023/12/17 06:09:07;;;;;;;15.38;8.85;;;23.30;34.90;;;;;;5058298;28;20074;-75
2023/12/17 06:11:33;;;;;;;13.55;8.75;;;22.90;32.00;;;;;;5074309;28;20075;-75
2023/12/17 06:13:59;;;;;;;13.75;8.77;;;;;;;;;;5057978;28;20495;-75
2023/12/17 06:16:25;;;;;;;15.43;9.80;;;;;;;;;;5058510;28;20035;-75
2023/12/17 06:18:52;;;;;;;21.33;8.63;;;;;;;;;;5058084;28;20101;-75
2023/12/17 06:21:25;;;;;;;17.40;9.07;;;22.80;32.40;;;;;;5074453;28;20479;-75
2023/12/17 06:23:57;;;;;;;17.75;9.32;;;23.10;29.10;;;;;;5074629;28;20036;-74
2023/12/17 06:26:23;;;;;;;21.98;9.50;;;23.30;32.20;;;;;;5074554;28;20036;-75
2023/12/17 06:28:49;;;;;;;17.60;7.90;;;;;;;;;;5057862;28;20176;-76
2023/12/17 06:31:15;;;;;;;22.75;8.13;;;;;;;;;;5076501;28;20533;-76
2023/12/17 06:33:41;;;;;;;15.95;8.07;;;;;;;;;;5077555;28;20047;-75
2023/12/17 06:36:07;;;;;;;15.45;8.15;;;23.20;32.90;;;;;;5079103;28;20505;-76
2023/12/17 06:38:33;;;;;;;15.65;7.53;;;;;;;;;;5078783;28;20032;-74
2023/12/17 06:40:59;;;;;;;24.40;8.55;;;22.90;35.30;;;;;;5075042;28;20128;-74
2023/12/17 06:43:25;;;;;;;21.00;9.50;;;;;;;;;;5074366;28;20468;-75
2023/12/17 06:45:51;;;;;;;19.65;9.40;;;22.90;36.30;;;;;;5074345;28;20044;-75
2023/12/17 06:48:18;;;;;;;19.92;10.52;;;23.30;35.60;;;;;;5073069;28;20054;-75
2023/12/17 06:50:44;;;;;;;26.42;10.90;;;;;;;;;;5057472;28;20452;-76
2023/12/17 06:53:15;;;;;;;19.40;10.52;;;;;;;;;;5073999;28;20043;-76
2023/12/17 06:55:41;;;;;;;22.52;10.57;;;23.30;38.30;;;;;;5073997;28;20051;-75
2023/12/17 06:58:07;;;;;;;23.70;10.40;;;;;;;;;;5073844;28;20504;-76
2023/12/17 07:00:34;;;;;;;22.75;11.50;;;22.80;38.90;;;;;;5073346;28;20123;-76
2023/12/17 07:03:00;;;;;;;23.73;10.30;;;22.70;38.80;;;;;;5057337;28;20032;-76
2023/12/17 07:05:26;;;;;;;16.30;9.93;;;23.10;40.90;;;;;;5073769;28;20081;-76
2023/12/17 07:07:51;;;;;;;24.08;11.05;;;23.10;42.80;;;;;;5074033;28;20454;-76
2023/12/17 07:10:17;;;;;;;30.65;11.80;;;;;;;;;;5073558;28;20040;-76
2023/12/17 07:12:44;;;;;;;29.52;11.10;;;;;;;;;;5074065;28;20080;-76
2023/12/17 07:15:10;;;;;;;22.35;11.45;;;;;;;;;;5057003;28;20047;-75
2023/12/17 07:17:36;;;;;;;27.90;11.73;;;;;;;;;;5057182;28;20449;-75
2023/12/17 07:20:03;;;;;;;23.73;11.05;;;23.20;46.40;;;;;;5073210;28;20482;-75
2023/12/17 07:22:29;;;;;;;22.70;11.32;;;;;;;;;;5073692;28;20124;-75
2023/12/17 07:24:55;;;;;;;25.27;12.52;;;;;;;;;;5073451;28;20415;-75
2023/12/17 07:27:21;;;;;;;23.00;11.98;;;22.80;48.80;;;;;;5073648;28;20093;-76
2023/12/17 07:29:47;;;;;;;20.65;11.63;;;23.40;50.50;;;;;;5056804;28;20098;-75
2023/12/17 07:32:12;;;;;;;27.25;10.75;;;22.60;47.90;;;;;;5073200;28;20047;-75
2023/12/17 07:34:38;;;;;;;21.00;10.15;;;;;;;;;;5073283;28;20075;-75
2023/12/17 07:37:04;;;;;;;18.83;9.55;;;;;;;;;;5073374;28;20404;-76
2023/12/17 07:39:30;;;;;;;17.23;9.48;;;;;;;;;;5073283;28;20047;-75
2023/12/17 07:41:56;;;;;;;18.25;9.60;;;;;;;;;;5056251;28;20040;-76
2023/12/17 07:44:22;;;;;;;21.73;10.10;;;;;;;;;;5073523;28;20457;-76
2023/12/17 07:46:48;;;;;;;17.08;10.07;;;22.60;42.30;;;;;;5055706;28;20051;-74
2023/12/17 07:49:14;;;;;;;21.85;10.48;;;;;;;;;;5073039;28;20028;-75
2023/12/17 07:51:39;;;;;;;20.17;9.07;;;22.60;42.00;;;;;;5072825;28;20505;-75
2023/12/17 07:54:08;;;;;;;18.58;9.48;;;;;;;;;;5073435;28;20037;-75
2023/12/17 07:56:34;;;;;;;19.50;9.80;;;22.90;41.00;;;;;;5073309;28;20032;-73
2023/12/17 07:59:00;;;;;;;25.80;10.13;;;;;;;;;;5073215;28;20384;-75
2023/12/17 08:01:31;;;;;;;25.35;10.50;;;23.40;40.30;;;;;;5073987;28;20047;-75
2023/12/17 08:03:57;;;;;;;21.10;10.07;;;;;;;;;;5060634;28;20044;-75
2023/12/17 08:06:24;;;;;;;19.63;9.50;;;;;;;;;;5077259;28;20123;-75
2023/12/17 08:08:50;;;;;;;17.05;8.95;;;;;;;;;;5060396;28;20078;-76
2023/12/17 08:11:16;;;;;;;23.33;10.27;;;;;;;;;;5076604;28;20040;-74
2023/12/17 08:13:42;;;;;;;17.02;8.85;;;;;;;;;;5077086;28;20040;-75
2023/12/17 08:16:09;;;;;;;21.88;9.38;;;;;;;;;;5077132;28;20051;-75
2023/12/17 08:18:34;;;;;;;20.98;9.85;;;22.70;39.60;;;;;;5077068;28;20419;-75
2023/12/17 08:21:01;;;;;;;22.52;10.10;;;23.00;37.70;;;;;;5076788;28;20036;-75
2023/12/17 08:23:27;;;;;;;23.67;10.10;;;23.00;40.90;;;;;;5077020;28;20227;-75
2023/12/17 08:25:53;;;;;;;19.80;10.25;;;;;;;;;;5060351;28;20077;-75
2023/12/17 08:28:20;;;;;;;25.95;10.10;;;;;;;;;;5076720;28;20171;-75
2023/12/17 08:30:46;;;;;;;26.85;12.25;;;;;;;;;;5076494;28;20095;-75
2023/12/17 08:33:12;;;;;;;30.02;12.45;;;22.80;47.70;;;;;;5076810;28;20132;-75
2023/12/17 08:35:38;;;;;;;31.08;12.98;;;;;;;;;;5060120;28;20047;-75
2023/12/17 08:38:08;;;;;;;33.53;12.18;;;22.70;49.00;;;;;;5076500;28;20044;-75
2023/12/17 08:40:37;;;;;;;27.90;12.70;;;22.80;50.00;;;;;;5076250;28;20063;-75
2023/12/17 08:43:06;;;;;;;31.20;12.45;;;22.60;49.50;;;;;;5076618;28;20044;-75
2023/12/17 08:45:33;;;;;;;31.30;12.20;;;;;;;;;;5060191;28;20564;-75
2023/12/17 08:47:59;;;;;;;32.30;12.50;;;;;;;;;;5075462;28;20040;-75
2023/12/17 08:50:25;;;;;;;24.88;11.57;;;22.70;47.90;;;;;;5059621;28;20059;-75
2023/12/17 08:52:52;;;;;;;30.80;11.43;;;;;;;;;;5076597;28;20552;-75
2023/12/17 08:55:19;;;;;;;21.10;11.20;;;;;;;;;;5076315;28;20105;-75
2023/12/17 08:57:45;;;;;;;23.10;9.80;;;22.60;42.30;;;;;;5076351;28;20499;-75
2023/12/17 09:00:12;;;;;;;28.05;10.60;;;23.20;43.50;;;;;;5076210;28;20086;-75
2023/12/17 09:02:38;;;;;;;26.58;10.68;;;;;;;;;;5076434;28;20036;-75
2023/12/17 09:05:04;;;;;;;34.75;11.00;;;22.70;41.30;;;;;;5076462;28;20097;-74
2023/12/17 09:07:29;;;;;;;25.08;10.75;;;22.80;40.40;;;;;;5076257;28;20044;-75
2023/12/17 09:09:55;;;;;;;34.53;11.93;;;23.00;40.80;;;;;;5059514;28;20036;-75
2023/12/17 09:12:21;;;;;;;35.95;11.20;;;;;;;;;;5075074;28;20040;-75
2023/12/17 09:14:48;;;;;;;30.88;11.23;;;22.90;34.20;;;;;;5075480;28;20075;-75
2023/12/17 09:17:14;;;;;;;28.50;9.50;;;22.90;37.80;;;;;;5076065;28;20036;-75
2023/12/17 09:19:40;;;;;;;26.55;9.00;;;;;;;;;;5076236;28;20047;-75
2023/12/17 09:22:06;;;;;;;22.38;9.48;;;;;;;;;;5075764;28;20507;-75
2023/12/17 09:24:31;;;;;;;23.83;10.43;;;22.80;31.50;;;;;;5075899;28;20052;-75
2023/12/17 09:26:57;;;;;;;21.67;9.00;;;;;;;;;;5059184;28;20036;-75
2023/12/17 09:29:23;;;;;;;20.60;9.43;;;;;;;;;;5075831;28;20036;-75
2023/12/17 09:31:50;;;;;;;23.23;8.93;;;;;;;;;;5075590;28;20044;-75
2023/12/17 09:34:16;;;;;;;29.95;10.45;;;22.90;26.50;;;;;;5058967;28;20047;-75
2023/12/17 09:36:42;;;;;;;27.80;9.38;;;;;;;;;;5075588;28;20032;-75
2023/12/17 09:39:08;;;;;;;30.95;9.20;;;;;;;;;;5083105;22;20083;-70
2023/12/17 09:41:34;;;;;;;23.40;9.05;;;22.70;23.20;;;;;;5019031;28;20135;-70
2023/12/17 09:44:00;;;;;;;20.83;8.45;;;23.00;24.10;;;;;;5019219;28;20072;-70
2023/12/17 09:46:26;;;;;;;30.27;9.32;;;22.80;23.10;;;;;;5035712;28;20033;-70
2023/12/17 09:48:52;;;;;;;21.25;8.55;;;;;;;;;;5034695;28;20496;-70
2023/12/17 09:51:18;;;;;;;25.15;9.45;;;22.90;21.90;;;;;;5053108;28;20044;-70
2023/12/17 09:53:44;;;;;;;20.33;8.35;;;23.00;21.80;;;;;;5019818;28;20045;-70
2023/12/17 09:56:12;;;;;;;27.23;10.25;;;23.00;18.30;;;;;;5036016;28;20516;-70
2023/12/17 09:58:37;;;;;;;32.20;12.23;;;23.10;19.50;;;;;;5035389;28;20087;-70
2023/12/17 10:01:03;;;;;;;28.08;11.60;;;22.80;16.60;;;;;;5035117;28;20040;-70
2023/12/17 10:03:30;;;;;;;26.33;11.93;;;22.60;14.90;;;;;;5035282;28;20187;-71
2023/12/17 10:05:55;;;;;;;32.75;12.82;;;22.80;17.90;;;;;;5018878;28;20064;-70
2023/12/17 10:08:21;;;;;;;28.67;13.60;;;;;;;;;;5035058;28;20492;-70
2023/12/17 10:10:47;;;;;;;30.13;14.93;;;;;;;;;;5034659;28;20041;-71
2023/12/17 10:13:20;;;;;;;36.58;15.15;;;22.80;12.40;;;;;;5035407;28;20053;-71
2023/12/17 10:15:51;;;;;;;34.20;14.88;;;23.10;12.50;;;;;;5034981;28;20045;-70
2023/12/17 10:18:17;;;;;;;34.90;15.82;;;23.30;14.70;;;;;;5034894;28;20041;-70
2023/12/17 10:20:46;;;;;;;36.13;16.42;;;23.10;14.90;;;;;;5034731;28;20041;-70
2023/12/17 10:23:13;;;;;;;35.50;17.60;;;23.00;14.00;;;;;;5035133;28;20040;-69
2023/12/17 10:25:39;;;;;;;31.52;16.83;;;23.10;14.60;;;;;;5034447;28;20037;-71
2023/12/17 10:28:05;;;;;;;29.55;16.63;;;22.80;14.00;;;;;;5034845;28;20041;-70
2023/12/17 10:30:33;;;;;;;29.75;15.55;;;23.00;13.30;;;;;;5034319;28;20094;-70
2023/12/17 10:33:01;;;;;;;32.13;16.27;;;22.90;14.90;;;;;;5035132;28;20051;-70
2023/12/17 10:35:29;;;;;;;33.88;16.67;;;23.30;14.80;;;;;;5034552;28;20048;-70
2023/12/17 10:38:00;;;;;;;32.58;15.38;;;23.20;14.40;;;;;;5034998;28;20393;-70
2023/12/17 10:40:27;;;;;;;35.03;16.13;;;23.10;14.50;;;;;;5033896;28;20049;-70
2023/12/17 10:42:56;;;;;;;33.80;16.95;;;22.60;13.10;;;;;;5034602;28;20041;-70
2023/12/17 10:45:22;;;;;;;34.75;16.35;;;22.80;13.20;;;;;;5034612;28;20393;-70
2023/12/17 10:47:52;;;;;;;35.80;16.73;;;22.90;13.40;;;;;;5033421;28;20041;-70
2023/12/17 10:50:19;;;;;;;31.13;16.63;;;22.70;13.90;;;;;;5033877;28;20170;-70
2023/12/17 10:52:48;;;;;;;27.17;16.27;;;23.00;13.60;;;;;;5034670;28;20149;-70
2023/12/17 10:55:14;;;;;;;38.13;16.88;;;23.00;12.90;;;;;;5051881;28;20037;-71
2023/12/17 10:57:43;;;;;;;30.33;17.80;;;23.20;13.20;;;;;;5052394;28;20037;-70
2023/12/17 11:00:10;;;;;;;33.10;17.27;;;;;;;;;;5033658;28;20045;-70
2023/12/17 11:02:36;;;;;;;35.35;18.60;;;22.80;9.30;;;;;;5034226;28;20040;-70
2023/12/17 11:05:02;;;;;;;27.02;15.65;;;23.10;12.30;;;;;;5034232;28;20512;-70
2023/12/17 11:07:30;;;;;;;30.85;16.20;;;23.10;11.50;;;;;;5034278;28;20049;-70
2023/12/17 11:09:58;;;;;;;37.63;17.65;;;23.30;8.80;;;;;;5017485;28;20055;-70
2023/12/17 11:12:25;;;;;;;31.10;18.13;;;22.70;9.40;;;;;;5033491;28;20127;-70
2023/12/17 11:14:51;;;;;;;33.45;19.20;;;22.90;12.60;;;;;;5017700;28;20036;-70
2023/12/17 11:17:17;;;;;;;40.58;19.17;;;22.70;13.00;;;;;;5033958;28;20043;-70
2023/12/17 11:19:57;;;;;;;31.73;18.92;;;23.20;13.20;;;;;;5033939;28;20041;-70
2023/12/17 11:22:23;;;;;;;35.33;19.27;;;23.20;11.60;;;;;;5033663;28;20166;-71
2023/12/17 11:24:52;;;;;;;31.15;19.05;;;22.80;12.50;;;;;;5034161;28;20401;-70
2023/12/17 11:27:19;;;;;;;32.53;17.58;;;22.90;12.50;;;;;;5034460;28;20428;-69
2023/12/17 11:29:45;;;;;;;38.28;18.73;;;22.90;12.60;;;;;;5034452;28;20047;-71
2023/12/17 11:32:12;;;;;;;38.28;17.90;;;23.40;9.80;;;;;;5033733;28;20041;-70
2023/12/17 11:34:38;;;;;;;30.67;17.67;;;;;;;;;;5033944;28;20033;-70
2023/12/17 11:37:04;;;;;;;30.73;17.67;;;23.10;12.00;;;;;;5033410;28;20463;-70
2023/12/17 11:39:31;;;;;;;23.35;16.50;;;23.20;10.90;;;;;;5033605;28;20037;-70
2023/12/17 11:41:56;;;;;;;28.05;17.00;;;23.10;11.30;;;;;;5033693;28;20037;-70
2023/12/17 11:44:22;;;;;;;29.73;16.98;;;23.10;11.50;;;;;;5017398;28;20044;-70
2023/12/17 11:46:49;;;;;;;25.35;15.52;;;23.00;10.40;;;;;;5033737;28;20033;-70
2023/12/17 11:49:23;;;;;;;27.75;16.63;;;22.90;9.60;;;;;;5017458;28;20401;-70
2023/12/17 11:51:49;;;;;;;29.10;17.58;;;22.70;8.80;;;;;;5033405;28;20041;-71
2023/12/17 11:54:26;;;;;;;27.25;16.38;;;23.10;5.00;;;;;;5033535;28;20091;-71
2023/12/17 11:56:51;;;;;;;25.05;16.02;;;23.20;9.60;;;;;;5033899;28;20041;-70
2023/12/17 11:59:35;;;;;;;32.85;16.98;;;23.20;9.60;;;;;;5017010;28;20059;-70
2023/12/17 12:02:02;;;;;;;31.92;16.48;;;23.20;8.90;;;;;;5032916;28;20041;-70
2023/12/17 12:04:40;;;;;;;28.73;15.80;;;23.00;5.50;;;;;;5033589;28;20120;-71
2023/12/17 12:07:06;;;;;;;28.40;16.42;;;;;;;;;;5051462;28;20041;-70
2023/12/17 12:09:32;;;;;;;30.77;17.55;;;22.80;8.10;;;;;;5033750;28;20052;-70
2023/12/17 12:11:57;;;;;;;29.95;16.90;;;23.00;8.30;;;;;;5033383;28;20091;-70
2023/12/17 12:14:23;;;;;;;35.53;17.73;;;23.00;7.50;;;;;;5033418;28;20534;-70
2023/12/17 12:16:49;;;;;;;32.33;17.92;;;;;;;;;;5017088;28;20037;-71
2023/12/17 12:19:15;;;;;;;30.10;19.30;;;;;;;;;;5033251;28;20090;-71
2023/12/17 12:21:41;;;;;;;33.15;18.15;;;;;;;;;;5016364;28;20532;-70
2023/12/17 12:24:19;;;;;;;32.97;19.13;;;23.10;8.90;;;;;;5033465;28;20251;-70
2023/12/17 12:26:45;;;;;;;26.90;17.10;;;;;;;;;;5033252;28;20428;-70
2023/12/17 12:29:12;;;;;;;33.35;19.63;;;;;;;;;;5033155;28;20051;-71
2023/12/17 12:31:38;;;;;;;33.08;20.02;;;23.10;6.80;;;;;;5032851;28;20047;-70
2023/12/17 12:34:05;;;;;;;33.67;19.50;;;22.80;6.70;;;;;;5033323;28;20045;-70
2023/12/17 12:36:47;;;;;;;32.65;20.05;;;22.70;7.50;;;;;;5033388;28;20458;-70
2023/12/17 12:39:14;;;;;;;33.83;20.17;;;22.80;3.70;;;;;;5033452;28;20412;-70
2023/12/17 12:41:45;;;;;;;34.05;20.63;;;22.50;6.60;;;;;;5016083;28;20044;-70
2023/12/17 12:44:15;;;;;;;34.55;20.08;;;22.60;6.20;;;;;;5016797;28;20041;-71
2023/12/17 12:46:41;;;;;;;43.22;21.33;;;22.90;7.00;;;;;;5033165;28;20045;-70
2023/12/17 12:49:08;;;;;;;31.02;19.63;;;22.70;6.70;;;;;;5035292;28;20041;-70
2023/12/17 12:51:34;;;;;;;44.33;21.65;;;22.90;7.30;;;;;;5054005;28;20094;-70
2023/12/17 12:54:02;;;;;;;37.78;20.92;;;22.70;7.70;;;;;;5036500;28;20075;-70
2023/12/17 12:56:28;;;;;;;40.55;23.25;;;22.90;7.80;;;;;;5020397;28;20033;-70
2023/12/17 12:58:53;;;;;;;37.10;21.75;;;22.90;7.90;;;;;;5036359;28;20036;-70
2023/12/17 13:01:19;;;;;;;35.30;21.90;;;22.90;6.30;;;;;;5035798;28;20041;-70
2023/12/17 13:03:45;;;;;;;37.20;22.30;;;;;;;;;;5020609;28;20033;-70
2023/12/17 13:06:11;;;;;;;36.08;21.45;;;;;;;;;;5037121;28;20564;-70
2023/12/17 13:08:37;;;;;;;35.17;23.13;;;22.50;7.70;;;;;;5036353;28;20175;-70